Time;durP1;ratioP1;P1;durP2;ratioP2;P2;SDS_P1;SDS_P2;PMS_P1;PMS_P2;Temp;Humidity;BMP_temperature;BMP_pressure;BME280_temperature;BME280_humidity;BME280_pressure;Samples;Min_cycle;Max_cycle;Signal;HPM_P1;HPM_P2
2023/11/14 00:00:06;;;;;;;15.60;4.40;;;;;;;;;;4958536;28;20691;-84
2023/11/14 00:02:32;;;;;;;18.37;4.47;;;;;;;;;;4963892;28;20250;-84
2023/11/14 00:05:00;;;;;;;20.00;4.93;;;;;;;;;;4944072;28;20210;-85
2023/11/14 00:07:25;;;;;;;23.33;5.43;;;;;;;;;;4979235;28;20257;-81
2023/11/14 00:09:53;;;;;;;15.47;5.13;;;;;;;;;;4977134;28;20606;-84
2023/11/14 00:12:22;;;;;;;17.63;4.83;;;;;;;;;;4992031;28;20226;-84
2023/11/14 00:14:50;;;;;;;19.10;4.50;;;;;;;;;;4953790;28;20256;-83
2023/11/14 00:17:17;;;;;;;15.60;5.13;;;;;;;;;;4959632;28;20214;-83
2023/11/14 00:19:45;;;;;;;17.23;4.80;;;;;;;;;;4959587;28;20245;-84
2023/11/14 00:22:10;;;;;;;15.63;4.97;;;;;;;;;;4956717;28;20235;-84
2023/11/14 00:24:38;;;;;;;13.43;4.43;;;;;;;;;;4968037;28;20275;-84
2023/11/14 00:27:04;;;;;;;19.43;5.27;;;;;;;;;;4974240;28;20245;-83
2023/11/14 00:29:35;;;;;;;18.47;4.10;;;;;;;;;;4981775;28;20575;-83
2023/11/14 00:32:01;;;;;;;18.17;5.10;;;;;;;;;;4970873;28;20230;-82
2023/11/14 00:34:26;;;;;;;18.27;4.20;;;;;;;;;;4984941;28;20215;-81
2023/11/14 00:36:52;;;;;;;13.63;4.10;;;;;;;;;;4958924;28;20233;-85
2023/11/14 00:39:23;;;;;;;12.00;4.47;;;;;;;;;;4958979;28;20218;-84
2023/11/14 00:41:54;;;;;;;14.10;4.50;;;;;;;;;;4941295;28;20222;-84
2023/11/14 00:44:24;;;;;;;15.53;4.30;;;;;;;;;;4943107;28;20285;-84
2023/11/14 00:47:00;;;;;;;12.83;4.07;;;;;;;;;;4946327;28;20246;-85
2023/11/14 00:49:28;;;;;;;22.67;4.37;;;;;;;;;;4956422;28;20316;-84
2023/11/14 00:51:55;;;;;;;16.40;4.27;;;;;;;;;;4956820;28;20222;-86
2023/11/14 00:54:24;;;;;;;14.03;4.37;;;;;;;;;;4950176;28;20226;-85
2023/11/14 00:56:53;;;;;;;17.90;4.53;;;;;;;;;;4937064;28;20241;-85
2023/11/14 00:59:20;;;;;;;15.53;4.23;;;;;;;;;;4945557;28;20222;-84
2023/11/14 01:01:47;;;;;;;13.57;4.50;;;;;;;;;;4959358;28;20221;-84
2023/11/14 01:04:18;;;;;;;18.53;4.53;;;;;;;;;;4941594;28;20229;-84
2023/11/14 01:06:47;;;;;;;16.30;3.93;;;;;;;;;;4959863;28;20297;-83
2023/11/14 01:09:15;;;;;;;21.60;4.77;;;;;;;;;;4952652;28;20226;-82
2023/11/14 01:11:43;;;;;;;17.77;4.17;;;;;;;;;;4934741;29;20221;-84
2023/11/14 01:14:13;;;;;;;13.07;4.10;;;;;;;;;;4953209;28;20246;-85
2023/11/14 01:16:43;;;;;;;10.07;4.23;;;;;;;;;;4954802;28;20251;-83
2023/11/14 01:19:13;;;;;;;17.73;4.30;;;;;;;;;;4956087;28;20242;-86
2023/11/14 01:21:41;;;;;;;13.03;4.17;;;;;;;;;;4963325;28;20237;-84
2023/11/14 01:24:10;;;;;;;18.57;4.27;;;;;;;;;;4957607;28;20250;-84
2023/11/14 01:26:38;;;;;;;13.97;4.27;;;;;;;;;;4977388;28;20214;-87
2023/11/14 01:29:06;;;;;;;23.67;4.60;;;;;;;;;;4937618;28;20225;-83
2023/11/14 01:31:36;;;;;;;19.77;4.67;;;;;;;;;;4950366;28;20241;-84
2023/11/14 01:34:04;;;;;;;12.50;3.97;;;;;;;;;;4928668;28;20269;-85
2023/11/14 01:36:36;;;;;;;21.33;4.50;;;;;;;;;;4922931;28;20223;-83
2023/11/14 01:39:05;;;;;;;13.17;4.43;;;;;;;;;;4936588;28;20709;-84
2023/11/14 01:41:33;;;;;;;15.97;4.33;;;;;;;;;;4936654;28;20239;-84
2023/11/14 01:44:02;;;;;;;14.07;4.10;;;;;;;;;;4925360;29;20765;-86
2023/11/14 01:46:28;;;;;;;17.40;4.07;;;;;;;;;;4940178;28;20225;-85
2023/11/14 01:48:54;;;;;;;14.67;4.33;;;;;;;;;;4918308;28;20202;-85
2023/11/14 01:51:20;;;;;;;16.33;4.50;;;;;;;;;;4957535;28;20786;-86
2023/11/14 01:53:49;;;;;;;13.80;3.60;;;;;;;;;;4937518;28;20281;-86
2023/11/14 01:56:17;;;;;;;9.63;3.10;;;;;;;;;;4928618;28;20282;-84
2023/11/14 01:58:43;;;;;;;11.47;3.80;;;;;;;;;;4951595;29;20616;-85
2023/11/14 02:01:11;;;;;;;13.13;4.33;;;;;;;;;;4947373;28;20237;-85
2023/11/14 02:03:37;;;;;;;12.47;4.50;;;;;;;;;;4925614;29;20292;-85
2023/11/14 02:06:03;;;;;;;11.73;4.20;;;;;;;;;;4938739;28;20680;-85
2023/11/14 02:08:34;;;;;;;11.53;3.60;;;;;;;;;;4941863;28;20229;-85
2023/11/14 02:11:02;;;;;;;13.33;4.40;;;;;;;;;;4926383;28;20763;-85
2023/11/14 02:13:27;;;;;;;9.03;3.50;;;;;;;;;;4943018;28;20396;-86
2023/11/14 02:15:53;;;;;;;12.60;4.20;;;;;;;;;;4925861;28;20218;-85
2023/11/14 02:18:19;;;;;;;17.17;4.03;;;;;;;;;;4936277;28;20640;-83
2023/11/14 02:20:47;;;;;;;17.00;4.43;;;;;;;;;;4924911;28;20218;-85
2023/11/14 02:23:16;;;;;;;13.33;4.10;;;;;;;;;;4938549;28;20218;-85
2023/11/14 02:25:41;;;;;;;15.60;3.97;;;;;;;;;;4940956;28;20636;-86
2023/11/14 02:28:13;;;;;;;8.27;3.90;;;;;;;;;;4953661;28;20276;-85
2023/11/14 02:30:44;;;;;;;14.13;4.30;;;;;;;;;;4941193;28;20313;-85
2023/11/14 02:33:12;;;;;;;14.17;3.73;;;;;;;;;;4952503;28;20233;-84
2023/11/14 02:35:39;;;;;;;13.93;4.23;;;;;;;;;;4951771;28;20284;-84
2023/11/14 02:38:05;;;;;;;12.13;3.83;;;;;;;;;;4937423;28;20214;-86
2023/11/14 02:40:31;;;;;;;15.07;4.37;;;;;;;;;;4938012;29;20223;-84
2023/11/14 02:42:56;;;;;;;17.20;4.50;;;;;;;;;;4935785;29;20219;-85
2023/11/14 02:45:26;;;;;;;13.60;4.33;;;;;;;;;;4954119;28;20658;-86
2023/11/14 02:47:53;;;;;;;14.10;4.80;;;;;;;;;;4923301;28;20214;-87
2023/11/14 02:50:32;;;;;;;14.63;4.57;;;;;;;;;;4939149;28;20278;-84
2023/11/14 02:52:58;;;;;;;12.53;4.07;;;;;;;;;;4924865;29;21178;-83
2023/11/14 02:55:24;;;;;;;13.80;4.20;;;;;;;;;;4939536;28;20570;-85
2023/11/14 02:57:50;;;;;;;12.00;4.33;;;;;;;;;;4943816;28;20219;-86
2023/11/14 03:00:16;;;;;;;21.60;4.93;;;;;;;;;;4947073;28;20249;-85
2023/11/14 03:02:48;;;;;;;13.33;4.47;;;;;;;;;;4935445;29;21094;-85
2023/11/14 03:05:17;;;;;;;14.60;3.63;;;;;;;;;;4921584;28;20909;-85
2023/11/14 03:07:43;;;;;;;16.27;4.33;;;;;;;;;;4932254;28;20245;-86
2023/11/14 03:10:11;;;;;;;14.03;4.07;;;;;;;;;;4935533;28;20227;-84
2023/11/14 03:12:37;;;;;;;13.67;3.90;;;;;;;;;;4926761;29;20219;-85
2023/11/14 03:15:06;;;;;;;12.47;3.83;;;;;;;;;;4922597;28;20214;-87
2023/11/14 03:17:36;;;;;;;11.67;3.90;;;;;;;;;;4920028;29;20287;-83
2023/11/14 03:20:03;;;;;;;10.37;3.53;;;;;;;;;;4923726;28;20219;-85
2023/11/14 03:22:29;;;;;;;11.37;3.53;;;;;;;;;;4931643;29;20227;-85
2023/11/14 03:24:54;;;;;;;10.00;4.20;;;;;;;;;;4945421;28;20229;-85
2023/11/14 03:27:23;;;;;;;11.67;3.43;;;;;;;;;;4950116;28;20219;-84
2023/11/14 03:29:51;;;;;;;10.10;3.57;;;;;;;;;;4939866;29;20864;-83
2023/11/14 03:32:18;;;;;;;15.73;3.57;;;;;;;;;;4944323;28;20242;-85
2023/11/14 03:34:46;;;;;;;10.87;3.37;;;;;;;;;;4922677;29;20625;-86
2023/11/14 03:37:16;;;;;;;10.80;3.70;;;;;;;;;;4940218;28;20223;-85
2023/11/14 03:39:42;;;;;;;9.30;4.00;;;;;;;;;;4937596;28;20226;-86
2023/11/14 03:42:07;;;;;;;12.83;3.97;;;;;;;;;;4912012;28;20231;-86
2023/11/14 03:44:33;;;;;;;14.23;4.00;;;;;;;;;;4923589;29;20303;-87
2023/11/14 03:47:00;;;;;;;10.37;4.27;;;;;;;;;;4919830;29;20222;-82
2023/11/14 03:49:28;;;;;;;14.73;4.07;;;;;;;;;;4935532;28;20361;-86
2023/11/14 03:51:55;;;;;;;13.83;3.57;;;;;;;;;;4940528;29;20234;-83
2023/11/14 03:54:28;;;;;;;8.43;3.00;;;;;;;;;;4946985;28;20315;-84
2023/11/14 03:56:54;;;;;;;11.97;3.70;;;;;;;;;;4927221;29;20676;-85
2023/11/14 04:03:09;;;;;;;19.43;5.30;;;;;;;;;;4970060;28;20241;-85
2023/11/14 04:05:37;;;;;;;17.37;3.90;;;;;;;;;;4939214;28;20222;-87
2023/11/14 04:08:05;;;;;;;14.40;4.67;;;;;;;;;;4939854;28;20214;-87
2023/11/14 04:10:33;;;;;;;17.27;4.03;;;;;;;;;;4939244;28;20253;-84
2023/11/14 04:13:01;;;;;;;12.63;4.37;;;;;;;;;;4953714;28;20249;-83
2023/11/14 04:15:27;;;;;;;10.10;3.07;;;;;;;;;;4936578;28;20652;-86
2023/11/14 04:17:53;;;;;;;20.37;4.37;;;;;;;;;;4958784;28;20679;-86
2023/11/14 04:20:18;;;;;;;18.63;4.87;;;;;;;;;;4958369;28;20229;-85
2023/11/14 04:22:48;;;;;;;14.13;4.20;;;;;;;;;;4948072;28;20684;-84
2023/11/14 04:25:14;;;;;;;13.13;4.10;;;;;;;;;;4969078;28;20587;-86
2023/11/14 04:27:42;;;;;;;21.77;4.30;;;;;;;;;;4951189;28;20218;-85
2023/11/14 04:30:10;;;;;;;9.50;3.43;;;;;;;;;;4950936;28;20218;-86
2023/11/14 04:32:38;;;;;;;10.63;4.33;;;;;;;;;;4921990;28;20774;-85
2023/11/14 04:35:04;;;;;;;14.30;3.77;;;;;;;;;;4972165;28;20291;-86
2023/11/14 04:37:30;;;;;;;16.50;3.90;;;;;;;;;;4932051;28;20225;-84
2023/11/14 04:39:58;;;;;;;8.00;3.67;;;;;;;;;;4950331;28;20226;-78
2023/11/14 04:42:27;;;;;;;12.70;3.50;;;;;;;;;;4971770;28;20218;-77
2023/11/14 04:44:52;;;;;;;12.90;3.90;;;;;;;;;;4945013;28;20222;-77
2023/11/14 04:47:18;;;;;;;14.40;3.90;;;;;;;;;;4943800;28;20210;-78
2023/11/14 04:49:44;;;;;;;11.03;4.00;;;;;;;;;;4945049;28;20226;-79
2023/11/14 04:52:10;;;;;;;10.53;4.03;;;;;;;;;;4942166;28;20222;-78
2023/11/14 04:54:35;;;;;;;13.60;4.67;;;;;;;;;;4949173;28;20232;-79
2023/11/14 04:57:01;;;;;;;17.73;4.73;;;;;;;;;;4961314;28;20238;-78
2023/11/14 04:59:26;;;;;;;15.30;4.20;;;;;;;;;;4959147;28;20233;-77
2023/11/14 05:01:52;;;;;;;13.40;4.13;;;;;;;;;;4974616;28;21359;-80
2023/11/14 05:04:17;;;;;;;11.57;4.07;;;;;;;;;;4959607;28;20231;-80
2023/11/14 05:06:43;;;;;;;12.67;3.73;;;;;;;;;;4950885;28;20222;-79
2023/11/14 05:09:09;;;;;;;13.07;3.57;;;;;;;;;;4942154;28;20223;-77
2023/11/14 05:11:42;;;;;;;14.90;4.20;;;;;;;;;;4932661;28;20304;-78
2023/11/14 05:14:08;;;;;;;15.67;4.03;;;;;;;;;;4953117;28;20219;-78
2023/11/14 05:16:39;;;;;;;18.47;4.53;;;;;;;;;;4975649;28;20235;-78
2023/11/14 05:19:06;;;;;;;15.13;4.70;;;;;;;;;;4961276;28;20234;-77
2023/11/14 05:21:34;;;;;;;10.40;3.83;;;;;;;;;;4977179;28;20709;-78
2023/11/14 05:24:02;;;;;;;14.20;4.40;;;;;;;;;;4954198;28;20265;-77
2023/11/14 05:26:27;;;;;;;13.27;3.80;;;;;;;;;;4949470;28;20219;-78
2023/11/14 05:28:55;;;;;;;14.40;3.97;;;;;;;;;;4949360;28;20214;-79
2023/11/14 05:31:25;;;;;;;13.73;3.70;;;;;;;;;;4961960;28;20322;-78
2023/11/14 05:33:51;;;;;;;9.90;3.47;;;;;;;;;;4969114;28;20305;-78
2023/11/14 05:36:16;;;;;;;10.67;3.10;;;;;;;;;;4978919;28;20263;-78
2023/11/14 05:38:42;;;;;;;10.60;3.57;;;;;;;;;;4966852;28;20232;-78
2023/11/14 05:41:07;;;;;;;17.37;3.97;;;;;;;;;;4962638;28;20274;-78
2023/11/14 05:43:35;;;;;;;9.93;3.50;;;;;;;;;;4954418;28;20229;-79
2023/11/14 05:46:00;;;;;;;13.47;3.87;;;;;;;;;;4969121;28;20281;-78
2023/11/14 05:48:28;;;;;;;15.53;4.37;;;;;;;;;;4953094;28;20783;-77
2023/11/14 05:50:54;;;;;;;14.57;3.93;;;;;;;;;;4968258;28;20222;-77
2023/11/14 05:53:19;;;;;;;11.57;3.63;;;;;;;;;;4981195;28;20225;-78
2023/11/14 05:55:45;;;;;;;9.50;3.47;;;;;;;;;;4948646;28;20250;-78
2023/11/14 05:58:13;;;;;;;12.83;4.10;;;;;;;;;;4949464;28;20810;-77
2023/11/14 06:00:41;;;;;;;11.70;3.67;;;;;;;;;;4961421;28;20253;-77
2023/11/14 06:03:06;;;;;;;12.10;4.37;;;;;;;;;;4952034;28;20783;-78
2023/11/14 06:05:36;;;;;;;12.93;4.17;;;;;;;;;;4946366;28;20241;-78
2023/11/14 06:08:02;;;;;;;18.10;3.97;;;;;;;;;;4949563;28;20460;-77
2023/11/14 06:10:31;;;;;;;14.47;4.33;;;;;;;;;;4959918;28;20317;-78
2023/11/14 06:12:59;;;;;;;15.13;4.33;;;;;;;;;;4964221;28;20225;-78
2023/11/14 06:15:32;;;;;;;8.50;3.60;;;;;;;;;;4937308;28;20336;-79
2023/11/14 06:17:58;;;;;;;9.30;3.77;;;;;;;;;;4959073;28;20321;-79
2023/11/14 06:20:25;;;;;;;13.07;4.13;;;;;;;;;;4975140;28;20241;-77
2023/11/14 06:22:51;;;;;;;12.00;4.00;;;;;;;;;;4930106;28;20222;-76
2023/11/14 06:25:18;;;;;;;15.30;3.83;;;;;;;;;;4963966;28;20643;-78
2023/11/14 06:27:44;;;;;;;11.50;3.70;;;;;;;;;;4966510;28;20326;-79
2023/11/14 06:30:11;;;;;;;15.40;4.17;;;;;;;;;;4965207;28;20225;-79
2023/11/14 06:32:37;;;;;;;9.50;3.50;;;;;;;;;;4952540;28;20910;-78
2023/11/14 06:35:02;;;;;;;14.03;4.30;;;;;;;;;;4968379;28;20230;-78
2023/11/14 06:37:28;;;;;;;12.73;4.30;;;;;;;;;;4977572;28;20242;-77
2023/11/14 06:39:56;;;;;;;15.77;4.57;;;;;;;;;;4958201;28;20712;-81
2023/11/14 06:42:24;;;;;;;15.50;4.10;;;;;;;;;;4954471;28;20229;-78
2023/11/14 06:44:50;;;;;;;13.47;4.53;;;;;;;;;;4944079;28;20226;-79
2023/11/14 06:47:16;;;;;;;17.83;4.50;;;;;;;;;;4946993;28;20218;-78
2023/11/14 06:49:42;;;;;;;12.47;4.07;;;;;;;;;;4971028;28;20249;-77
2023/11/14 06:52:10;;;;;;;16.67;3.97;;;;;;;;;;4950275;28;20226;-80
2023/11/14 06:54:38;;;;;;;9.83;3.93;;;;;;;;;;4959460;28;20305;-78
2023/11/14 06:57:10;;;;;;;18.57;4.23;;;;;;;;;;4932030;28;20234;-80
2023/11/14 06:59:35;;;;;;;10.63;3.17;;;;;;;;;;4959117;28;20293;-77
2023/11/14 07:02:06;;;;;;;8.73;3.07;;;;;;;;;;4961759;28;20235;-79
2023/11/14 07:04:37;;;;;;;9.43;2.87;;;;;;;;;;4950539;28;20222;-78
2023/11/14 07:07:04;;;;;;;9.17;3.13;;;;;;;;;;4950985;28;20266;-78
2023/11/14 07:09:35;;;;;;;15.70;3.27;;;;;;;;;;4965316;28;20555;-77
2023/11/14 07:12:03;;;;;;;13.57;3.53;;;;;;;;;;4963217;28;20290;-77
2023/11/14 07:14:29;;;;;;;10.83;3.47;;;;;;;;;;4962330;28;20225;-78
2023/11/14 07:16:57;;;;;;;9.27;3.80;;;;;;;;;;4946266;28;20230;-79
2023/11/14 07:19:23;;;;;;;14.83;4.03;;;;;;;;;;4946840;28;20233;-78
2023/11/14 07:21:50;;;;;;;14.27;4.40;;;;;;;;;;4946924;28;20237;-80
2023/11/14 07:24:16;;;;;;;20.17;5.10;;;;;;;;;;4934286;28;20225;-78
2023/11/14 07:26:43;;;;;;;17.67;4.80;;;;;;;;;;4948770;28;20230;-79
2023/11/14 07:29:12;;;;;;;17.50;4.23;;;;;;;;;;4953968;28;20284;-78
2023/11/14 07:31:42;;;;;;;12.30;4.33;;;;;;;;;;4958448;28;20243;-76
2023/11/14 07:34:07;;;;;;;14.53;4.77;;;;;;;;;;4962282;28;20225;-76
2023/11/14 07:36:33;;;;;;;19.83;4.63;;;;;;;;;;4963465;28;20226;-76
2023/11/14 07:38:59;;;;;;;14.27;4.10;;;;;;;;;;4979976;28;20237;-75
2023/11/14 07:41:26;;;;;;;28.00;5.40;;;;;;;;;;4962557;28;20218;-78
2023/11/14 07:43:52;;;;;;;15.83;4.00;;;;;;;;;;4985476;28;20246;-76
2023/11/14 07:46:22;;;;;;;19.93;5.47;;;;;;;;;;4974733;28;20214;-76
2023/11/14 07:48:48;;;;;;;17.63;5.20;;;;;;;;;;4957893;28;20634;-75
2023/11/14 07:51:15;;;;;;;18.57;4.87;;;;;;;;;;4950361;28;20214;-77
2023/11/14 07:53:42;;;;;;;17.37;4.87;;;;;;;;;;4949052;28;20686;-79
2023/11/14 07:56:08;;;;;;;15.70;5.27;;;;;;;;;;4954889;28;20231;-79
2023/11/14 07:58:34;;;;;;;15.53;5.10;;;;;;;;;;4961816;28;20721;-77
2023/11/14 08:00:59;;;;;;;20.43;8.60;;;;;;;;;;4959047;28;20225;-78
2023/11/14 08:03:25;;;;;;;23.70;7.57;;;;;;;;;;4965435;28;20218;-77
2023/11/14 08:05:50;;;;;;;20.87;6.43;;;;;;;;;;4937683;28;20209;-78
2023/11/14 08:08:16;;;;;;;11.60;4.50;;;;;;;;;;4951046;28;20222;-78
2023/11/14 08:10:42;;;;;;;15.40;4.53;;;;;;;;;;4952663;28;20245;-78
2023/11/14 08:13:07;;;;;;;13.23;4.67;;;;;;;;;;4968949;28;20223;-78
2023/11/14 08:15:33;;;;;;;11.53;4.60;;;;;;;;;;4958877;28;20210;-78
2023/11/14 08:17:59;;;;;;;19.47;11.27;;;;;;;;;;4942815;28;20230;-79
2023/11/14 08:20:27;;;;;;;23.23;7.80;;;;;;;;;;4954018;28;20237;-78
2023/11/14 08:22:53;;;;;;;21.37;9.87;;;;;;;;;;4947826;28;20214;-77
2023/11/14 08:25:21;;;;;;;24.03;7.47;;;;;;;;;;4953816;28;20604;-80
2023/11/14 08:27:47;;;;;;;25.90;6.80;;;;;;;;;;4955125;28;20358;-80
2023/11/14 08:30:13;;;;;;;17.07;5.97;;;;;;;;;;4935783;28;20226;-79
2023/11/14 08:32:39;;;;;;;18.63;6.27;;;;;;;;;;4952690;28;20235;-78
2023/11/14 08:35:09;;;;;;;25.00;6.07;;;;;;;;;;4942594;28;20222;-79
2023/11/14 08:37:38;;;;;;;29.57;6.97;;;;;;;;;;4947861;28;20234;-78
2023/11/14 08:40:04;;;;;;;24.17;6.30;;;;;;;;;;4950555;28;20231;-79
2023/11/14 08:42:29;;;;;;;21.90;7.63;;;;;;;;;;4946350;28;20229;-78
2023/11/14 08:44:57;;;;;;;19.90;6.37;;;;;;;;;;4972715;28;20677;-77
2023/11/14 08:47:23;;;;;;;21.40;5.80;;;;;;;;;;4953309;28;22088;-79
2023/11/14 08:49:49;;;;;;;13.97;5.10;;;;;;;;;;4965012;28;20230;-78
2023/11/14 08:52:16;;;;;;;24.03;6.07;;;;;;;;;;4979329;28;20223;-77
2023/11/14 08:54:43;;;;;;;23.80;6.13;;;;;;;;;;4966892;28;20246;-77
2023/11/14 08:57:08;;;;;;;21.43;5.67;;;;;;;;;;4979792;28;20234;-77
2023/11/14 08:59:34;;;;;;;20.10;5.70;;;;;;;;;;4979050;28;20591;-77
2023/11/14 09:02:02;;;;;;;24.67;5.63;;;;;;;;;;4962530;28;20222;-78
2023/11/14 09:04:30;;;;;;;23.37;5.87;;;;;;;;;;4955221;28;20214;-78
2023/11/14 09:06:58;;;;;;;26.47;5.87;;;;;;;;;;4937861;28;20218;-77
2023/11/14 09:09:24;;;;;;;17.70;5.83;;;;;;;;;;4974823;28;20226;-77
2023/11/14 09:11:49;;;;;;;19.30;4.47;;;;;;;;;;4959109;28;20881;-78
2023/11/14 09:14:15;;;;;;;18.87;4.90;;;;;;;;;;4946153;28;20253;-76
2023/11/14 09:16:43;;;;;;;19.47;5.33;;;;;;;;;;4944369;28;20332;-78
2023/11/14 09:19:09;;;;;;;15.87;5.20;;;;;;;;;;4928463;28;20218;-77
2023/11/14 09:21:34;;;;;;;16.63;4.20;;;;;;;;;;4947845;28;20241;-78
2023/11/14 09:24:03;;;;;;;18.17;5.00;;;;;;;;;;4962564;28;20227;-76
2023/11/14 09:26:31;;;;;;;16.10;4.97;;;;;;;;;;4953173;28;20275;-76
2023/11/14 09:28:59;;;;;;;20.40;5.13;;;;;;;;;;4947115;28;20233;-77
2023/11/14 09:31:25;;;;;;;15.03;4.10;;;;;;;;;;4950796;28;20230;-77
2023/11/14 09:33:51;;;;;;;18.80;4.97;;;;;;;;;;4975495;28;20234;-77
2023/11/14 09:36:19;;;;;;;10.37;3.50;;;;;;;;;;4952081;28;20225;-78
2023/11/14 09:38:44;;;;;;;13.50;3.97;;;;;;;;;;4977082;28;20642;-78
2023/11/14 09:41:11;;;;;;;15.80;4.47;;;;;;;;;;4970172;28;20775;-77
2023/11/14 09:43:41;;;;;;;17.57;4.77;;;;;;;;;;4962913;28;20926;-79
2023/11/14 09:46:07;;;;;;;14.97;4.37;;;;;;;;;;4945849;28;20258;-78
2023/11/14 09:48:36;;;;;;;17.40;4.87;;;;;;;;;;4954688;28;20233;-77
2023/11/14 09:51:02;;;;;;;12.87;4.33;;;;;;;;;;4953205;28;20676;-78
2023/11/14 09:53:27;;;;;;;15.40;4.80;;;;;;;;;;4944618;28;20218;-78
2023/11/14 09:55:55;;;;;;;14.57;4.57;;;;;;;;;;4969505;28;20239;-78
2023/11/14 09:58:23;;;;;;;14.47;4.80;;;;;;;;;;4951268;28;20218;-77
2023/11/14 10:00:49;;;;;;;13.80;4.50;;;;;;;;;;4961331;28;20257;-77
2023/11/14 10:03:18;;;;;;;15.67;5.03;;;;;;;;;;4944693;28;20680;-76
2023/11/14 10:05:46;;;;;;;17.17;5.10;;;;;;;;;;4947478;28;20218;-76
2023/11/14 10:08:14;;;;;;;15.47;4.43;;;;;;;;;;4975960;28;20284;-79
2023/11/14 10:11:01;;;;;;;17.70;5.20;;;;;;;;;;4950973;28;20244;-78
2023/11/14 10:13:29;;;;;;;15.63;5.10;;;;;;;;;;4954364;28;20703;-82
2023/11/14 10:16:27;;;;;;;11.40;4.20;;;;;;;;;;4978969;28;20237;-79
2023/11/14 10:18:58;;;;;;;14.50;4.50;;;;;;;;;;4958271;28;20743;-77
2023/11/14 10:21:27;;;;;;;15.67;4.40;;;;;;;;;;4953040;28;20325;-76
2023/11/14 10:23:53;;;;;;;15.10;4.53;;;;;;;;;;4955325;28;20308;-77
2023/11/14 10:26:18;;;;;;;14.70;4.63;;;;;;;;;;4937034;28;20221;-77
2023/11/14 10:29:00;;;;;;;15.10;4.40;;;;;;;;;;4960975;28;20222;-77
2023/11/14 10:31:37;;;;;;;20.60;5.23;;;;;;;;;;4946945;28;20233;-78
2023/11/14 10:34:07;;;;;;;11.63;3.97;;;;;;;;;;4975916;28;20222;-78
2023/11/14 10:36:46;;;;;;;17.43;6.27;;;;;;;;;;4934856;28;20243;-78
2023/11/14 10:39:12;;;;;;;15.37;4.53;;;;;;;;;;4952893;28;20238;-80
2023/11/14 10:41:37;;;;;;;10.60;3.83;;;;;;;;;;4935550;28;20241;-78
2023/11/14 10:44:09;;;;;;;14.03;4.80;;;;;;;;;;4946016;28;20226;-78
2023/11/14 10:46:35;;;;;;;13.70;4.83;;;;;;;;;;4962871;28;20234;-77
2023/11/14 10:49:03;;;;;;;11.03;4.40;;;;;;;;;;4952222;28;20295;-77
2023/11/14 10:51:33;;;;;;;17.47;4.47;;;;;;;;;;4951955;28;20606;-79
2023/11/14 10:53:59;;;;;;;14.03;3.97;;;;;;;;;;4945368;28;20882;-77
2023/11/14 10:56:25;;;;;;;17.20;5.37;;;;;;;;;;4969004;28;20233;-79
2023/11/14 10:58:51;;;;;;;11.40;4.63;;;;;;;;;;4936891;28;20313;-78
2023/11/14 11:01:17;;;;;;;12.80;4.73;;;;;;;;;;4950082;28;20222;-80
2023/11/14 11:03:45;;;;;;;12.27;4.73;;;;;;;;;;4947254;28;20226;-79
2023/11/14 11:06:12;;;;;;;13.70;4.77;;;;;;;;;;4935620;28;20242;-79
2023/11/14 11:08:38;;;;;;;10.77;3.57;;;;;;;;;;4936983;28;20214;-78
2023/11/14 11:11:05;;;;;;;11.07;4.13;;;;;;;;;;4947804;28;20569;-79
2023/11/14 11:13:31;;;;;;;10.53;3.60;;;;;;;;;;4976315;28;20234;-79
2023/11/14 11:15:57;;;;;;;12.17;4.17;;;;;;;;;;4936799;28;20223;-77
2023/11/14 11:18:34;;;;;;;26.93;14.77;;;;;;;;;;4956155;28;20269;-78
2023/11/14 11:21:08;;;;;;;18.70;4.97;;;;;;;;;;4929698;29;20219;-79
2023/11/14 11:24:07;;;;;;;11.93;4.57;;;;;;;;;;4932211;29;20307;-77
2023/11/14 11:26:32;;;;;;;11.33;3.90;;;;;;;;;;4967206;28;20750;-77
2023/11/14 11:29:02;;;;;;;13.00;3.30;;;;;;;;;;4936299;29;20302;-79
2023/11/14 11:31:30;;;;;;;15.57;4.13;;;;;;;;;;4966108;28;20230;-78
2023/11/14 11:33:56;;;;;;;12.40;3.40;;;;;;;;;;4947137;28;20570;-77
2023/11/14 11:36:24;;;;;;;15.00;4.73;;;;;;;;;;4960115;28;20672;-79
2023/11/14 11:39:05;;;;;;;12.43;4.20;;;;;;;;;;4960537;28;20280;-77
2023/11/14 11:41:35;;;;;;;14.73;3.30;;;;;;;;;;4962250;28;20228;-78
2023/11/14 11:44:13;;;;;;;17.13;4.47;;;;;;;;;;4935015;28;20210;-78
2023/11/14 11:46:46;;;;;;;14.57;4.37;;;;;;;;;;4942783;28;20229;-79
2023/11/14 11:49:22;;;;;;;15.17;4.30;;;;;;;;;;4945357;28;20230;-76
2023/11/14 11:51:48;;;;;;;12.17;4.57;;;;;;;;;;4958979;28;20261;-77
2023/11/14 11:54:28;;;;;;;14.83;4.70;;;;;;;;;;4944313;28;20708;-75
2023/11/14 11:57:06;;;;;;;15.67;5.20;;;;;;;;;;4973968;28;20253;-77
2023/11/14 11:59:44;;;;;;;13.47;5.60;;;;;;;;;;4976507;28;20900;-77
2023/11/14 12:02:23;;;;;;;18.33;5.13;;;;;;;;;;4960804;28;20313;-77
2023/11/14 12:04:51;;;;;;;14.50;4.30;;;;;;;;;;4949882;28;20278;-78
2023/11/14 12:07:19;;;;;;;15.53;4.73;;;;;;;;;;4957536;28;20277;-77
2023/11/14 12:09:45;;;;;;;15.63;5.17;;;;;;;;;;4953294;28;20225;-80
2023/11/14 12:12:12;;;;;;;19.30;5.57;;;;;;;;;;4966527;28;20237;-77
2023/11/14 12:14:38;;;;;;;23.37;5.67;;;;;;;;;;4952484;28;20221;-79
2023/11/14 12:17:08;;;;;;;14.63;4.67;;;;;;;;;;4951109;28;20215;-77
2023/11/14 12:19:38;;;;;;;22.90;5.63;;;;;;;;;;4966014;28;20224;-79
2023/11/14 12:22:07;;;;;;;16.97;4.97;;;;;;;;;;4967024;28;20229;-79
2023/11/14 12:24:33;;;;;;;23.47;6.10;;;;;;;;;;4965068;28;20875;-79
2023/11/14 12:26:58;;;;;;;12.27;4.80;;;;;;;;;;4942343;28;20223;-79
2023/11/14 12:29:24;;;;;;;13.13;4.80;;;;;;;;;;4949758;28;20280;-79
2023/11/14 12:31:53;;;;;;;15.13;6.03;;;;;;;;;;4973675;28;20229;-78
2023/11/14 12:34:25;;;;;;;19.27;6.10;;;;;;;;;;4957040;28;20256;-79
2023/11/14 12:36:50;;;;;;;19.00;6.20;;;;;;;;;;4972167;28;20229;-78
2023/11/14 12:39:16;;;;;;;28.20;14.23;;;;;;;;;;4964214;28;20211;-78
2023/11/14 12:41:43;;;;;;;26.90;12.27;;;;;;;;;;4949725;28;20233;-79
2023/11/14 12:44:08;;;;;;;53.67;31.83;;;;;;;;;;4953997;28;20288;-77
2023/11/14 12:46:38;;;;;;;24.43;13.80;;;;;;;;;;4956239;28;20274;-78
2023/11/14 12:49:09;;;;;;;9.30;4.53;;;;;;;;;;4968231;28;20267;-78
2023/11/14 12:51:35;;;;;;;20.27;7.20;;;;;;;;;;4970104;28;20222;-77
2023/11/14 12:54:04;;;;;;;9.07;5.53;;;;;;;;;;4955034;28;20221;-79
2023/11/14 12:56:30;;;;;;;12.87;4.47;;;;;;;;;;4967664;28;20295;-78
2023/11/14 12:58:55;;;;;;;11.70;4.00;;;;;;;;;;4957112;28;20222;-76
2023/11/14 13:01:21;;;;;;;13.37;4.13;;;;;;;;;;4955962;28;20256;-78
2023/11/14 13:03:46;;;;;;;13.17;4.00;;;;;;;;;;4954649;28;20219;-79
2023/11/14 13:06:13;;;;;;;12.67;4.13;;;;;;;;;;4955316;28;20234;-78
2023/11/14 13:08:40;;;;;;;18.63;4.40;;;;;;;;;;4964131;28;20226;-77
2023/11/14 13:11:06;;;;;;;13.30;4.57;;;;;;;;;;4953359;28;20445;-79
2023/11/14 13:13:34;;;;;;;16.90;4.87;;;;;;;;;;4939289;28;20225;-79
2023/11/14 13:16:00;;;;;;;15.43;4.80;;;;;;;;;;4979762;28;20232;-78
2023/11/14 13:18:25;;;;;;;15.53;5.20;;;;;;;;;;4969551;28;20226;-78
2023/11/14 13:20:53;;;;;;;19.07;6.03;;;;;;;;;;4953955;28;20214;-78
2023/11/14 13:23:22;;;;;;;18.70;6.07;;;;;;;;;;4962629;28;20309;-77
2023/11/14 13:25:47;;;;;;;17.10;4.90;;;;;;;;;;4963788;28;20262;-77
2023/11/14 13:28:15;;;;;;;21.80;5.03;;;;;;;;;;4977725;28;20667;-78
2023/11/14 13:30:41;;;;;;;19.63;5.27;;;;;;;;;;4980379;28;20915;-79
2023/11/14 13:33:06;;;;;;;17.80;5.43;;;;;;;;;;4956397;28;20222;-77
2023/11/14 13:35:34;;;;;;;22.90;9.83;;;;;;;;;;4977988;28;20586;-78
2023/11/14 13:38:00;;;;;;;16.50;5.60;;;;;;;;;;4956008;28;20281;-78
2023/11/14 13:40:27;;;;;;;23.47;9.07;;;;;;;;;;4946929;28;20237;-78
2023/11/14 13:42:53;;;;;;;16.47;5.17;;;;;;;;;;4948401;28;20227;-78
2023/11/14 13:45:18;;;;;;;19.80;10.00;;;;;;;;;;4981146;28;20218;-80
2023/11/14 13:47:44;;;;;;;14.07;5.90;;;;;;;;;;4965959;28;20226;-80
2023/11/14 13:50:10;;;;;;;11.47;4.37;;;;;;;;;;4947613;28;20222;-80
2023/11/14 13:52:41;;;;;;;17.43;6.17;;;;;;;;;;4971355;28;20227;-78
2023/11/14 13:55:07;;;;;;;19.93;5.90;;;;;;;;;;4943183;28;20709;-80
2023/11/14 13:57:33;;;;;;;19.33;9.07;;;;;;;;;;4962243;28;20231;-79
2023/11/14 13:59:58;;;;;;;16.27;5.83;;;;;;;;;;4948491;28;20700;-80
2023/11/14 14:02:24;;;;;;;19.13;5.23;;;;;;;;;;4972133;28;20230;-80
2023/11/14 14:04:49;;;;;;;13.87;6.60;;;;;;;;;;4956886;28;20230;-79
2023/11/14 14:07:15;;;;;;;17.77;6.17;;;;;;;;;;4970872;28;20232;-78
2023/11/14 14:09:40;;;;;;;21.47;10.27;;;;;;;;;;4968875;28;20222;-81
2023/11/14 14:12:06;;;;;;;18.93;7.70;;;;;;;;;;4981904;28;20229;-79
2023/11/14 14:14:32;;;;;;;20.80;5.43;;;;;;;;;;4961212;28;20226;-81
2023/11/14 14:16:58;;;;;;;13.17;4.73;;;;;;;;;;4966755;28;20767;-81
2023/11/14 14:19:26;;;;;;;16.30;5.03;;;;;;;;;;4944445;28;20228;-78
2023/11/14 14:21:53;;;;;;;14.53;5.20;;;;;;;;;;4984647;28;20222;-77
2023/11/14 14:24:21;;;;;;;12.33;4.80;;;;;;;;;;4978355;28;20308;-78
2023/11/14 14:26:47;;;;;;;11.53;4.00;;;;;;;;;;4948755;28;20879;-77
2023/11/14 14:29:12;;;;;;;11.20;4.47;;;;;;;;;;4980096;28;20229;-77
2023/11/14 14:31:40;;;;;;;18.27;4.63;;;;;;;;;;4963800;28;20230;-77
2023/11/14 14:34:06;;;;;;;12.30;5.00;;;;;;;;;;4944910;28;20624;-78
2023/11/14 14:36:36;;;;;;;17.30;5.70;;;;;;;;;;4962450;28;20226;-78